Lindley, New York
Current Conditions -  °F | °C
As of 8:53 PM on Wednesday 17 Dec 2014 (Local Time) from KELM Reporting Station
Overcast Overcast  
Wind Chill: 25°   Ceiling: 2800
Heat Index: 35°   Visibility: 10mi
Dew Point: 26°   Wind: 16mph
Humidity: 70%   Direction: 260°W
Pressure: 29.93"   Gusts: NA
Location:  42.03°N, 77.14°W
Report Text: KELM 180153Z AUTO 26014KT 10SM BKN028 OVC035 02/M03 A2993 RMK AO2 PK WND 27027/0122 SLP142 T00171033
Loading
Personal Weather Stations






























Interactive Weather Map New forecast layout! Learn more

10-Day Weather Forecast

Advertisements
Track Severe Weather on mobile